sensor_id;sensor_type;location;lat;lon;timestamp;temperature;humidity
48860;DHT22;34679;51.436;-2.518;2023-03-01T00:02:17;6.20;99.90
48860;DHT22;34679;51.436;-2.518;2023-03-01T00:04:43;6.20;99.90
48860;DHT22;34679;51.436;-2.518;2023-03-01T00:07:08;6.20;99.90
48860;DHT22;34679;51.436;-2.518;2023-03-01T00:09:36;6.20;99.90
48860;DHT22;34679;51.436;-2.518;2023-03-01T00:12:02;6.20;99.90
48860;DHT22;34679;51.436;-2.518;2023-03-01T00:14:28;6.20;99.90
48860;DHT22;34679;51.436;-2.518;2023-03-01T00:16:54;6.30;99.90
48860;DHT22;34679;51.436;-2.518;2023-03-01T00:19:20;6.30;99.90
48860;DHT22;34679;51.436;-2.518;2023-03-01T00:21:48;6.20;99.90
48860;DHT22;34679;51.436;-2.518;2023-03-01T00:24:13;6.20;99.90
48860;DHT22;34679;51.436;-2.518;2023-03-01T00:26:39;6.20;99.90
48860;DHT22;34679;51.436;-2.518;2023-03-01T00:29:06;6.20;99.90
48860;DHT22;34679;51.436;-2.518;2023-03-01T00:31:32;6.20;99.90
48860;DHT22;34679;51.436;-2.518;2023-03-01T00:34:01;6.10;99.90
48860;DHT22;34679;51.436;-2.518;2023-03-01T00:36:29;6.20;99.90
48860;DHT22;34679;51.436;-2.518;2023-03-01T00:38:55;6.30;99.90
48860;DHT22;34679;51.436;-2.518;2023-03-01T00:41:23;6.20;99.90
48860;DHT22;34679;51.436;-2.518;2023-03-01T00:43:49;6.20;99.90
48860;DHT22;34679;51.436;-2.518;2023-03-01T00:46:18;6.20;99.90
48860;DHT22;34679;51.436;-2.518;2023-03-01T00:48:44;6.20;99.90
48860;DHT22;34679;51.436;-2.518;2023-03-01T00:51:16;6.30;99.90
48860;DHT22;34679;51.436;-2.518;2023-03-01T00:53:42;6.20;99.90
48860;DHT22;34679;51.436;-2.518;2023-03-01T00:56:10;6.20;99.90
48860;DHT22;34679;51.436;-2.518;2023-03-01T00:58:36;6.10;99.90
48860;DHT22;34679;51.436;-2.518;2023-03-01T01:01:10;6.10;99.90
48860;DHT22;34679;51.436;-2.518;2023-03-01T01:03:47;6.10;99.90
48860;DHT22;34679;51.436;-2.518;2023-03-01T01:06:17;6.10;99.90
48860;DHT22;34679;51.436;-2.518;2023-03-01T01:08:43;6.10;99.90
48860;DHT22;34679;51.436;-2.518;2023-03-01T01:11:11;6.10;99.90
48860;DHT22;34679;51.436;-2.518;2023-03-01T01:13:37;6.10;99.90
48860;DHT22;34679;51.436;-2.518;2023-03-01T01:16:04;6.10;99.90
48860;DHT22;34679;51.436;-2.518;2023-03-01T01:18:29;6.10;99.90
48860;DHT22;34679;51.436;-2.518;2023-03-01T01:20:55;6.10;99.90
48860;DHT22;34679;51.436;-2.518;2023-03-01T01:23:21;6.10;99.90
48860;DHT22;34679;51.436;-2.518;2023-03-01T01:25:46;6.10;99.90
48860;DHT22;34679;51.436;-2.518;2023-03-01T01:28:12;6.10;99.90
48860;DHT22;34679;51.436;-2.518;2023-03-01T01:30:38;6.10;99.90
48860;DHT22;34679;51.436;-2.518;2023-03-01T01:33:03;6.10;99.90
48860;DHT22;34679;51.436;-2.518;2023-03-01T01:35:29;6.10;99.90
48860;DHT22;34679;51.436;-2.518;2023-03-01T01:37:55;6.10;99.90
48860;DHT22;34679;51.436;-2.518;2023-03-01T01:40:20;6.10;99.90
48860;DHT22;34679;51.436;-2.518;2023-03-01T01:42:46;6.00;99.90
48860;DHT22;34679;51.436;-2.518;2023-03-01T01:47:54;6.10;99.90
48860;DHT22;34679;51.436;-2.518;2023-03-01T01:50:21;5.90;99.90
48860;DHT22;34679;51.436;-2.518;2023-03-01T01:52:49;5.90;99.90
48860;DHT22;34679;51.436;-2.518;2023-03-01T01:55:23;5.80;99.90
48860;DHT22;34679;51.436;-2.518;2023-03-01T01:57:53;5.70;99.90
48860;DHT22;34679;51.436;-2.518;2023-03-01T02:00:23;5.70;99.90
48860;DHT22;34679;51.436;-2.518;2023-03-01T02:02:54;5.70;99.90
48860;DHT22;34679;51.436;-2.518;2023-03-01T02:05:22;5.70;99.90
48860;DHT22;34679;51.436;-2.518;2023-03-01T02:07:50;5.60;99.90
48860;DHT22;34679;51.436;-2.518;2023-03-01T02:10:16;5.50;99.90
48860;DHT22;34679;51.436;-2.518;2023-03-01T02:12:43;5.60;99.90
48860;DHT22;34679;51.436;-2.518;2023-03-01T02:15:09;5.60;99.90
48860;DHT22;34679;51.436;-2.518;2023-03-01T02:17:35;5.50;99.90
48860;DHT22;34679;51.436;-2.518;2023-03-01T02:22:46;5.60;99.90
48860;DHT22;34679;51.436;-2.518;2023-03-01T02:25:24;5.60;99.90
48860;DHT22;34679;51.436;-2.518;2023-03-01T02:30:48;5.50;99.90
48860;DHT22;34679;51.436;-2.518;2023-03-01T02:33:34;5.60;99.90
48860;DHT22;34679;51.436;-2.518;2023-03-01T02:39:07;5.60;99.90
48860;DHT22;34679;51.436;-2.518;2023-03-01T02:41:42;5.50;99.90
48860;DHT22;34679;51.436;-2.518;2023-03-01T02:44:08;5.50;99.90
48860;DHT22;34679;51.436;-2.518;2023-03-01T02:46:43;5.50;99.90
48860;DHT22;34679;51.436;-2.518;2023-03-01T02:54:48;5.30;99.90
48860;DHT22;34679;51.436;-2.518;2023-03-01T02:57:16;5.40;99.90
48860;DHT22;34679;51.436;-2.518;2023-03-01T02:59:42;5.30;99.90
48860;DHT22;34679;51.436;-2.518;2023-03-01T03:02:19;5.30;99.90
48860;DHT22;34679;51.436;-2.518;2023-03-01T03:04:47;5.30;99.90
48860;DHT22;34679;51.436;-2.518;2023-03-01T03:07:13;5.30;99.90
48860;DHT22;34679;51.436;-2.518;2023-03-01T03:09:38;5.30;99.90
48860;DHT22;34679;51.436;-2.518;2023-03-01T03:12:04;5.20;99.90
48860;DHT22;34679;51.436;-2.518;2023-03-01T03:14:30;5.10;99.90
48860;DHT22;34679;51.436;-2.518;2023-03-01T03:17:00;5.10;99.90
48860;DHT22;34679;51.436;-2.518;2023-03-01T03:19:25;5.10;99.90
48860;DHT22;34679;51.436;-2.518;2023-03-01T03:21:51;5.10;99.90
48860;DHT22;34679;51.436;-2.518;2023-03-01T03:24:17;5.20;99.90
48860;DHT22;34679;51.436;-2.518;2023-03-01T03:26:43;5.20;99.90
48860;DHT22;34679;51.436;-2.518;2023-03-01T03:29:09;5.30;99.90
48860;DHT22;34679;51.436;-2.518;2023-03-01T03:31:35;5.20;99.90
48860;DHT22;34679;51.436;-2.518;2023-03-01T03:34:00;5.20;99.90
48860;DHT22;34679;51.436;-2.518;2023-03-01T03:36:26;5.20;99.90
48860;DHT22;34679;51.436;-2.518;2023-03-01T03:38:52;5.20;99.90
48860;DHT22;34679;51.436;-2.518;2023-03-01T03:41:17;5.20;99.90
48860;DHT22;34679;51.436;-2.518;2023-03-01T03:43:44;5.20;99.90
48860;DHT22;34679;51.436;-2.518;2023-03-01T03:46:11;5.20;99.90
48860;DHT22;34679;51.436;-2.518;2023-03-01T03:48:39;5.30;99.90
48860;DHT22;34679;51.436;-2.518;2023-03-01T03:51:06;5.40;99.90
48860;DHT22;34679;51.436;-2.518;2023-03-01T03:53:32;5.40;99.90
48860;DHT22;34679;51.436;-2.518;2023-03-01T03:55:58;5.40;99.90
48860;DHT22;34679;51.436;-2.518;2023-03-01T03:58:25;5.40;99.90
48860;DHT22;34679;51.436;-2.518;2023-03-01T04:00:53;5.40;99.90
48860;DHT22;34679;51.436;-2.518;2023-03-01T04:03:20;5.40;99.90
48860;DHT22;34679;51.436;-2.518;2023-03-01T04:05:46;5.50;99.90
48860;DHT22;34679;51.436;-2.518;2023-03-01T04:08:13;5.50;99.90
48860;DHT22;34679;51.436;-2.518;2023-03-01T04:10:45;5.50;99.90
48860;DHT22;34679;51.436;-2.518;2023-03-01T04:13:13;5.50;99.90
48860;DHT22;34679;51.436;-2.518;2023-03-01T04:15:39;5.50;99.90
48860;DHT22;34679;51.436;-2.518;2023-03-01T04:18:05;5.50;99.90
48860;DHT22;34679;51.436;-2.518;2023-03-01T04:20:33;5.50;99.90
48860;DHT22;34679;51.436;-2.518;2023-03-01T04:23:08;5.50;99.90
48860;DHT22;34679;51.436;-2.518;2023-03-01T04:25:54;5.60;99.90
48860;DHT22;34679;51.436;-2.518;2023-03-01T04:28:27;5.60;99.90
48860;DHT22;34679;51.436;-2.518;2023-03-01T04:30:54;5.60;99.90
48860;DHT22;34679;51.436;-2.518;2023-03-01T04:33:20;5.60;99.90
48860;DHT22;34679;51.436;-2.518;2023-03-01T04:35:46;5.50;99.90
48860;DHT22;34679;51.436;-2.518;2023-03-01T04:38:15;5.60;99.90
48860;DHT22;34679;51.436;-2.518;2023-03-01T04:40:41;5.60;99.90
48860;DHT22;34679;51.436;-2.518;2023-03-01T04:43:09;5.60;99.90
48860;DHT22;34679;51.436;-2.518;2023-03-01T04:45:35;5.60;99.90
48860;DHT22;34679;51.436;-2.518;2023-03-01T04:48:02;5.60;99.90
48860;DHT22;34679;51.436;-2.518;2023-03-01T04:50:28;5.60;99.90
48860;DHT22;34679;51.436;-2.518;2023-03-01T04:52:54;5.60;99.90
48860;DHT22;34679;51.436;-2.518;2023-03-01T04:55:25;5.60;99.90
48860;DHT22;34679;51.436;-2.518;2023-03-01T04:57:51;5.50;99.90
48860;DHT22;34679;51.436;-2.518;2023-03-01T05:00:17;5.50;99.90
48860;DHT22;34679;51.436;-2.518;2023-03-01T05:02:54;5.40;99.90
48860;DHT22;34679;51.436;-2.518;2023-03-01T05:07:53;5.40;99.90
48860;DHT22;34679;51.436;-2.518;2023-03-01T05:10:19;5.40;99.90
48860;DHT22;34679;51.436;-2.518;2023-03-01T05:12:45;5.40;99.90
48860;DHT22;34679;51.436;-2.518;2023-03-01T05:15:12;5.40;99.90
48860;DHT22;34679;51.436;-2.518;2023-03-01T05:17:37;5.40;99.90
48860;DHT22;34679;51.436;-2.518;2023-03-01T05:20:03;5.30;99.90
48860;DHT22;34679;51.436;-2.518;2023-03-01T05:22:34;5.30;99.90
48860;DHT22;34679;51.436;-2.518;2023-03-01T05:25:01;5.30;99.90
48860;DHT22;34679;51.436;-2.518;2023-03-01T05:27:26;5.30;99.90
48860;DHT22;34679;51.436;-2.518;2023-03-01T05:29:52;5.30;99.90
48860;DHT22;34679;51.436;-2.518;2023-03-01T05:32:18;5.30;99.90
48860;DHT22;34679;51.436;-2.518;2023-03-01T05:34:44;5.40;99.90
48860;DHT22;34679;51.436;-2.518;2023-03-01T05:37:12;5.30;99.90
48860;DHT22;34679;51.436;-2.518;2023-03-01T05:39:39;5.30;99.90
48860;DHT22;34679;51.436;-2.518;2023-03-01T05:42:05;5.30;99.90
48860;DHT22;34679;51.436;-2.518;2023-03-01T05:44:31;5.40;99.90
48860;DHT22;34679;51.436;-2.518;2023-03-01T05:46:56;5.30;99.90
48860;DHT22;34679;51.436;-2.518;2023-03-01T05:49:22;5.30;99.90
48860;DHT22;34679;51.436;-2.518;2023-03-01T05:51:52;5.30;99.90
48860;DHT22;34679;51.436;-2.518;2023-03-01T05:54:20;5.20;99.90
48860;DHT22;34679;51.436;-2.518;2023-03-01T05:56:46;5.20;99.90
48860;DHT22;34679;51.436;-2.518;2023-03-01T05:59:12;5.20;99.90
48860;DHT22;34679;51.436;-2.518;2023-03-01T06:01:39;5.20;99.90
48860;DHT22;34679;51.436;-2.518;2023-03-01T06:04:05;5.20;99.90
48860;DHT22;34679;51.436;-2.518;2023-03-01T06:06:35;5.20;99.90
48860;DHT22;34679;51.436;-2.518;2023-03-01T06:09:03;5.10;99.90
48860;DHT22;34679;51.436;-2.518;2023-03-01T06:11:29;5.10;99.90
48860;DHT22;34679;51.436;-2.518;2023-03-01T06:13:55;5.10;99.90
48860;DHT22;34679;51.436;-2.518;2023-03-01T06:16:20;5.10;99.90
48860;DHT22;34679;51.436;-2.518;2023-03-01T06:18:46;5.10;99.90
48860;DHT22;34679;51.436;-2.518;2023-03-01T06:21:12;5.10;99.90
48860;DHT22;34679;51.436;-2.518;2023-03-01T06:23:37;5.10;99.90
48860;DHT22;34679;51.436;-2.518;2023-03-01T06:26:08;5.10;99.90
48860;DHT22;34679;51.436;-2.518;2023-03-01T06:28:34;5.00;99.90
48860;DHT22;34679;51.436;-2.518;2023-03-01T06:31:00;5.00;99.90
48860;DHT22;34679;51.436;-2.518;2023-03-01T06:33:25;5.00;99.90
48860;DHT22;34679;51.436;-2.518;2023-03-01T06:35:54;5.00;99.90
48860;DHT22;34679;51.436;-2.518;2023-03-01T06:38:19;5.00;99.90
48860;DHT22;34679;51.436;-2.518;2023-03-01T06:40:51;5.00;99.90
48860;DHT22;34679;51.436;-2.518;2023-03-01T06:43:17;5.10;99.90
48860;DHT22;34679;51.436;-2.518;2023-03-01T06:45:43;5.10;99.90
48860;DHT22;34679;51.436;-2.518;2023-03-01T06:48:09;5.00;99.90
48860;DHT22;34679;51.436;-2.518;2023-03-01T06:50:35;5.00;99.90
48860;DHT22;34679;51.436;-2.518;2023-03-01T06:53:01;5.00;99.90
48860;DHT22;34679;51.436;-2.518;2023-03-01T06:55:27;5.00;99.90
48860;DHT22;34679;51.436;-2.518;2023-03-01T06:58:02;5.00;99.90
48860;DHT22;34679;51.436;-2.518;2023-03-01T07:00:29;5.00;99.90
48860;DHT22;34679;51.436;-2.518;2023-03-01T07:02:58;5.00;99.90
48860;DHT22;34679;51.436;-2.518;2023-03-01T07:05:24;5.00;99.90
48860;DHT22;34679;51.436;-2.518;2023-03-01T07:07:50;5.00;99.90
48860;DHT22;34679;51.436;-2.518;2023-03-01T07:10:16;5.10;99.90
48860;DHT22;34679;51.436;-2.518;2023-03-01T07:12:41;5.10;99.90
48860;DHT22;34679;51.436;-2.518;2023-03-01T07:15:09;5.10;99.90
48860;DHT22;34679;51.436;-2.518;2023-03-01T07:17:35;5.10;99.90
48860;DHT22;34679;51.436;-2.518;2023-03-01T07:20:01;5.10;99.90
48860;DHT22;34679;51.436;-2.518;2023-03-01T07:22:26;5.20;99.90
48860;DHT22;34679;51.436;-2.518;2023-03-01T07:24:52;5.10;99.90
48860;DHT22;34679;51.436;-2.518;2023-03-01T07:27:17;5.10;99.90
48860;DHT22;34679;51.436;-2.518;2023-03-01T07:29:43;5.20;99.90
48860;DHT22;34679;51.436;-2.518;2023-03-01T07:32:09;5.20;99.90
48860;DHT22;34679;51.436;-2.518;2023-03-01T07:34:36;5.20;99.90
48860;DHT22;34679;51.436;-2.518;2023-03-01T07:37:01;5.30;99.90
48860;DHT22;34679;51.436;-2.518;2023-03-01T07:39:27;5.30;99.90
48860;DHT22;34679;51.436;-2.518;2023-03-01T07:41:53;5.30;99.90
48860;DHT22;34679;51.436;-2.518;2023-03-01T07:44:18;5.40;99.90
48860;DHT22;34679;51.436;-2.518;2023-03-01T07:46:44;5.40;99.90
48860;DHT22;34679;51.436;-2.518;2023-03-01T07:49:10;5.40;99.90
48860;DHT22;34679;51.436;-2.518;2023-03-01T07:51:35;5.60;99.90
48860;DHT22;34679;51.436;-2.518;2023-03-01T07:54:01;5.60;99.90
48860;DHT22;34679;51.436;-2.518;2023-03-01T07:56:27;5.60;99.90
48860;DHT22;34679;51.436;-2.518;2023-03-01T07:58:53;5.60;99.90
48860;DHT22;34679;51.436;-2.518;2023-03-01T08:01:20;5.70;99.90
48860;DHT22;34679;51.436;-2.518;2023-03-01T08:03:46;5.80;99.90
48860;DHT22;34679;51.436;-2.518;2023-03-01T08:06:14;5.90;99.90
48860;DHT22;34679;51.436;-2.518;2023-03-01T08:08:40;5.90;99.90
48860;DHT22;34679;51.436;-2.518;2023-03-01T08:11:06;5.80;99.90
48860;DHT22;34679;51.436;-2.518;2023-03-01T08:13:33;5.80;99.90
48860;DHT22;34679;51.436;-2.518;2023-03-01T08:16:03;6.00;99.90
48860;DHT22;34679;51.436;-2.518;2023-03-01T08:18:29;6.10;99.90
48860;DHT22;34679;51.436;-2.518;2023-03-01T08:20:55;6.20;99.90
48860;DHT22;34679;51.436;-2.518;2023-03-01T08:23:20;6.20;99.90
48860;DHT22;34679;51.436;-2.518;2023-03-01T08:25:46;6.30;99.90
48860;DHT22;34679;51.436;-2.518;2023-03-01T08:28:12;6.50;99.90
48860;DHT22;34679;51.436;-2.518;2023-03-01T08:30:37;6.70;99.90
48860;DHT22;34679;51.436;-2.518;2023-03-01T08:33:03;7.20;99.90
48860;DHT22;34679;51.436;-2.518;2023-03-01T08:35:29;7.50;99.90
48860;DHT22;34679;51.436;-2.518;2023-03-01T08:37:54;7.60;99.90
48860;DHT22;34679;51.436;-2.518;2023-03-01T08:40:20;7.70;99.90
48860;DHT22;34679;51.436;-2.518;2023-03-01T08:42:46;7.90;99.90
48860;DHT22;34679;51.436;-2.518;2023-03-01T08:45:11;8.10;99.90
48860;DHT22;34679;51.436;-2.518;2023-03-01T08:47:39;8.40;99.90
48860;DHT22;34679;51.436;-2.518;2023-03-01T08:50:05;8.90;99.90
48860;DHT22;34679;51.436;-2.518;2023-03-01T08:52:32;8.50;99.90
48860;DHT22;34679;51.436;-2.518;2023-03-01T08:54:58;8.50;99.90
48860;DHT22;34679;51.436;-2.518;2023-03-01T08:57:24;8.50;99.90
48860;DHT22;34679;51.436;-2.518;2023-03-01T08:59:49;8.20;99.90
48860;DHT22;34679;51.436;-2.518;2023-03-01T09:02:17;7.80;99.90
48860;DHT22;34679;51.436;-2.518;2023-03-01T09:04:43;7.60;99.90
48860;DHT22;34679;51.436;-2.518;2023-03-01T09:07:10;7.50;99.90
48860;DHT22;34679;51.436;-2.518;2023-03-01T09:09:36;7.00;99.90
48860;DHT22;34679;51.436;-2.518;2023-03-01T09:12:02;6.90;99.90
48860;DHT22;34679;51.436;-2.518;2023-03-01T09:14:28;7.00;99.90
48860;DHT22;34679;51.436;-2.518;2023-03-01T09:16:54;7.00;99.90
48860;DHT22;34679;51.436;-2.518;2023-03-01T09:19:19;7.30;99.90
48860;DHT22;34679;51.436;-2.518;2023-03-01T09:21:45;7.80;99.90
48860;DHT22;34679;51.436;-2.518;2023-03-01T09:24:19;8.40;99.90
48860;DHT22;34679;51.436;-2.518;2023-03-01T09:26:45;8.50;99.90
48860;DHT22;34679;51.436;-2.518;2023-03-01T09:29:14;8.60;99.90
48860;DHT22;34679;51.436;-2.518;2023-03-01T09:31:41;10.00;99.90
48860;DHT22;34679;51.436;-2.518;2023-03-01T09:34:07;10.90;99.90
48860;DHT22;34679;51.436;-2.518;2023-03-01T09:36:34;10.80;99.90
48860;DHT22;34679;51.436;-2.518;2023-03-01T09:39:00;10.50;99.90
48860;DHT22;34679;51.436;-2.518;2023-03-01T09:42:00;10.40;99.90
48860;DHT22;34679;51.436;-2.518;2023-03-01T09:44:54;10.60;99.90
48860;DHT22;34679;51.436;-2.518;2023-03-01T09:47:33;9.80;99.90
48860;DHT22;34679;51.436;-2.518;2023-03-01T09:50:18;9.60;99.90
48860;DHT22;34679;51.436;-2.518;2023-03-01T09:52:48;9.10;99.90
48860;DHT22;34679;51.436;-2.518;2023-03-01T09:55:20;8.60;99.90
48860;DHT22;34679;51.436;-2.518;2023-03-01T09:57:53;8.50;99.90
48860;DHT22;34679;51.436;-2.518;2023-03-01T10:00:30;8.50;99.90
48860;DHT22;34679;51.436;-2.518;2023-03-01T10:03:16;8.40;99.90
48860;DHT22;34679;51.436;-2.518;2023-03-01T10:10:56;8.60;99.90
48860;DHT22;34679;51.436;-2.518;2023-03-01T10:19:00;8.60;99.90
48860;DHT22;34679;51.436;-2.518;2023-03-01T10:21:28;8.50;99.90
48860;DHT22;34679;51.436;-2.518;2023-03-01T10:24:11;8.70;99.90
48860;DHT22;34679;51.436;-2.518;2023-03-01T10:27:34;8.60;99.90
48860;DHT22;34679;51.436;-2.518;2023-03-01T10:32:18;8.50;99.90
48860;DHT22;34679;51.436;-2.518;2023-03-01T10:34:44;8.50;99.90
48860;DHT22;34679;51.436;-2.518;2023-03-01T10:37:15;8.50;99.90
48860;DHT22;34679;51.436;-2.518;2023-03-01T10:40:04;8.30;99.90
48860;DHT22;34679;51.436;-2.518;2023-03-01T10:42:39;8.40;99.90
48860;DHT22;34679;51.436;-2.518;2023-03-01T10:51:04;8.20;99.90
48860;DHT22;34679;51.436;-2.518;2023-03-01T10:53:49;8.20;99.90
48860;DHT22;34679;51.436;-2.518;2023-03-01T10:56:15;8.00;99.90
48860;DHT22;34679;51.436;-2.518;2023-03-01T10:59:04;8.00;99.90
48860;DHT22;34679;51.436;-2.518;2023-03-01T11:01:33;7.80;99.90
48860;DHT22;34679;51.436;-2.518;2023-03-01T11:04:13;7.80;99.90
48860;DHT22;34679;51.436;-2.518;2023-03-01T11:06:43;7.70;99.90
48860;DHT22;34679;51.436;-2.518;2023-03-01T11:09:23;7.60;99.90
48860;DHT22;34679;51.436;-2.518;2023-03-01T11:11:56;7.70;99.90
48860;DHT22;34679;51.436;-2.518;2023-03-01T11:14:24;7.90;99.90
48860;DHT22;34679;51.436;-2.518;2023-03-01T11:22:32;7.90;99.90
48860;DHT22;34679;51.436;-2.518;2023-03-01T11:25:00;7.90;99.90
48860;DHT22;34679;51.436;-2.518;2023-03-01T11:27:31;7.60;99.90
48860;DHT22;34679;51.436;-2.518;2023-03-01T11:32:39;7.60;99.90
48860;DHT22;34679;51.436;-2.518;2023-03-01T11:35:20;7.70;99.90
48860;DHT22;34679;51.436;-2.518;2023-03-01T11:38:21;7.70;99.90
48860;DHT22;34679;51.436;-2.518;2023-03-01T11:57:51;7.80;99.90
48860;DHT22;34679;51.436;-2.518;2023-03-01T12:00:20;8.10;99.90
48860;DHT22;34679;51.436;-2.518;2023-03-01T12:08:58;8.00;99.90
48860;DHT22;34679;51.436;-2.518;2023-03-01T12:30:49;9.10;99.90
48860;DHT22;34679;51.436;-2.518;2023-03-01T12:33:36;9.20;99.90
48860;DHT22;34679;51.436;-2.518;2023-03-01T12:36:27;9.30;99.90
48860;DHT22;34679;51.436;-2.518;2023-03-01T12:44:47;8.80;99.90
48860;DHT22;34679;51.436;-2.518;2023-03-01T12:47:20;8.60;99.90
48860;DHT22;34679;51.436;-2.518;2023-03-01T12:49:55;8.60;99.90
48860;DHT22;34679;51.436;-2.518;2023-03-01T12:55:08;8.40;99.90
48860;DHT22;34679;51.436;-2.518;2023-03-01T12:57:47;8.50;99.90
48860;DHT22;34679;51.436;-2.518;2023-03-01T13:00:40;8.50;99.90
48860;DHT22;34679;51.436;-2.518;2023-03-01T13:06:29;8.40;99.90
48860;DHT22;34679;51.436;-2.518;2023-03-01T13:11:26;8.20;99.90
48860;DHT22;34679;51.436;-2.518;2023-03-01T13:13:52;8.30;99.90
48860;DHT22;34679;51.436;-2.518;2023-03-01T13:19:13;8.30;99.90
48860;DHT22;34679;51.436;-2.518;2023-03-01T13:21:40;8.30;99.90
48860;DHT22;34679;51.436;-2.518;2023-03-01T13:24:33;8.20;99.90
48860;DHT22;34679;51.436;-2.518;2023-03-01T13:29:56;7.90;99.90
48860;DHT22;34679;51.436;-2.518;2023-03-01T13:32:28;7.70;99.90
48860;DHT22;34679;51.436;-2.518;2023-03-01T13:35:42;7.90;99.90
48860;DHT22;34679;51.436;-2.518;2023-03-01T13:37:45;8.00;99.90
48860;DHT22;34679;51.436;-2.518;2023-03-01T13:42:54;8.10;99.90
48860;DHT22;34679;51.436;-2.518;2023-03-01T13:45:40;8.00;99.90
48860;DHT22;34679;51.436;-2.518;2023-03-01T13:48:24;8.00;99.90
48860;DHT22;34679;51.436;-2.518;2023-03-01T13:51:03;8.10;99.90
48860;DHT22;34679;51.436;-2.518;2023-03-01T13:53:33;8.10;99.90
48860;DHT22;34679;51.436;-2.518;2023-03-01T13:58:58;8.20;99.90
48860;DHT22;34679;51.436;-2.518;2023-03-01T14:01:33;8.10;99.90
48860;DHT22;34679;51.436;-2.518;2023-03-01T14:04:00;8.00;99.90
48860;DHT22;34679;51.436;-2.518;2023-03-01T14:06:30;7.90;99.90
48860;DHT22;34679;51.436;-2.518;2023-03-01T14:09:22;7.90;99.90
48860;DHT22;34679;51.436;-2.518;2023-03-01T14:12:39;7.80;99.90
48860;DHT22;34679;51.436;-2.518;2023-03-01T14:15:19;7.70;99.90
48860;DHT22;34679;51.436;-2.518;2023-03-01T14:20:27;7.60;99.90
48860;DHT22;34679;51.436;-2.518;2023-03-01T14:22:59;7.60;99.90
48860;DHT22;34679;51.436;-2.518;2023-03-01T14:25:31;7.70;99.90
48860;DHT22;34679;51.436;-2.518;2023-03-01T14:28:22;7.80;99.90
48860;DHT22;34679;51.436;-2.518;2023-03-01T14:30:51;7.70;99.90
48860;DHT22;34679;51.436;-2.518;2023-03-01T14:38:37;7.90;99.90
48860;DHT22;34679;51.436;-2.518;2023-03-01T14:41:09;8.10;99.90
48860;DHT22;34679;51.436;-2.518;2023-03-01T14:43:38;8.20;99.90
48860;DHT22;34679;51.436;-2.518;2023-03-01T14:46:06;8.40;99.90
48860;DHT22;34679;51.436;-2.518;2023-03-01T14:48:32;8.40;99.90
48860;DHT22;34679;51.436;-2.518;2023-03-01T14:50:57;8.40;99.90
48860;DHT22;34679;51.436;-2.518;2023-03-01T14:53:27;8.30;99.90
48860;DHT22;34679;51.436;-2.518;2023-03-01T14:56:01;8.50;99.90
48860;DHT22;34679;51.436;-2.518;2023-03-01T14:58:28;8.50;99.90
48860;DHT22;34679;51.436;-2.518;2023-03-01T15:01:03;8.40;99.90
48860;DHT22;34679;51.436;-2.518;2023-03-01T15:03:38;8.50;99.90
48860;DHT22;34679;51.436;-2.518;2023-03-01T15:06:07;8.40;99.90
48860;DHT22;34679;51.436;-2.518;2023-03-01T15:08:34;8.30;99.90
48860;DHT22;34679;51.436;-2.518;2023-03-01T15:13:38;8.10;99.90
48860;DHT22;34679;51.436;-2.518;2023-03-01T15:18:35;8.00;99.90
48860;DHT22;34679;51.436;-2.518;2023-03-01T15:21:15;8.10;99.90
48860;DHT22;34679;51.436;-2.518;2023-03-01T15:23:41;8.10;99.90
48860;DHT22;34679;51.436;-2.518;2023-03-01T15:26:25;8.10;99.90
48860;DHT22;34679;51.436;-2.518;2023-03-01T15:28:52;7.90;99.90
48860;DHT22;34679;51.436;-2.518;2023-03-01T15:31:28;7.80;99.90
48860;DHT22;34679;51.436;-2.518;2023-03-01T15:36:44;7.80;99.90
48860;DHT22;34679;51.436;-2.518;2023-03-01T15:41:56;7.80;99.90
48860;DHT22;34679;51.436;-2.518;2023-03-01T15:44:28;7.90;99.90
48860;DHT22;34679;51.436;-2.518;2023-03-01T15:46:54;7.90;99.90
48860;DHT22;34679;51.436;-2.518;2023-03-01T15:49:33;7.80;99.90
48860;DHT22;34679;51.436;-2.518;2023-03-01T15:52:01;7.90;99.90
48860;DHT22;34679;51.436;-2.518;2023-03-01T15:54:28;8.00;99.90
48860;DHT22;34679;51.436;-2.518;2023-03-01T15:56:54;8.00;99.90
48860;DHT22;34679;51.436;-2.518;2023-03-01T15:59:20;8.00;99.90
48860;DHT22;34679;51.436;-2.518;2023-03-01T16:01:48;8.10;99.90
48860;DHT22;34679;51.436;-2.518;2023-03-01T16:04:16;8.20;99.90
48860;DHT22;34679;51.436;-2.518;2023-03-01T16:06:50;8.30;99.90
48860;DHT22;34679;51.436;-2.518;2023-03-01T16:09:23;8.30;99.90
48860;DHT22;34679;51.436;-2.518;2023-03-01T16:11:50;8.20;99.90
48860;DHT22;34679;51.436;-2.518;2023-03-01T16:14:16;8.20;99.90
48860;DHT22;34679;51.436;-2.518;2023-03-01T16:16:43;8.20;99.90
48860;DHT22;34679;51.436;-2.518;2023-03-01T16:19:09;8.20;99.90
48860;DHT22;34679;51.436;-2.518;2023-03-01T16:21:36;8.20;99.90
48860;DHT22;34679;51.436;-2.518;2023-03-01T16:24:02;8.20;99.90
48860;DHT22;34679;51.436;-2.518;2023-03-01T16:26:28;8.20;99.90
48860;DHT22;34679;51.436;-2.518;2023-03-01T16:28:57;8.20;99.90
48860;DHT22;34679;51.436;-2.518;2023-03-01T16:31:24;8.20;99.90
48860;DHT22;34679;51.436;-2.518;2023-03-01T16:33:54;8.20;99.90
48860;DHT22;34679;51.436;-2.518;2023-03-01T16:36:21;8.20;99.90
48860;DHT22;34679;51.436;-2.518;2023-03-01T16:38:49;8.10;99.90
48860;DHT22;34679;51.436;-2.518;2023-03-01T16:41:18;8.10;99.90
48860;DHT22;34679;51.436;-2.518;2023-03-01T16:43:44;8.00;99.90
48860;DHT22;34679;51.436;-2.518;2023-03-01T16:46:41;8.00;99.90
48860;DHT22;34679;51.436;-2.518;2023-03-01T16:49:07;8.00;99.90
48860;DHT22;34679;51.436;-2.518;2023-03-01T16:51:33;7.90;99.90
48860;DHT22;34679;51.436;-2.518;2023-03-01T16:54:01;7.80;99.90
48860;DHT22;34679;51.436;-2.518;2023-03-01T16:56:27;7.60;99.90
48860;DHT22;34679;51.436;-2.518;2023-03-01T16:58:54;7.50;99.90
48860;DHT22;34679;51.436;-2.518;2023-03-01T17:01:20;7.40;99.90
48860;DHT22;34679;51.436;-2.518;2023-03-01T17:03:49;7.40;99.90
48860;DHT22;34679;51.436;-2.518;2023-03-01T17:06:17;7.30;99.90
48860;DHT22;34679;51.436;-2.518;2023-03-01T17:08:46;7.30;99.90
48860;DHT22;34679;51.436;-2.518;2023-03-01T17:11:17;7.30;99.90
48860;DHT22;34679;51.436;-2.518;2023-03-01T17:13:43;7.20;99.90
48860;DHT22;34679;51.436;-2.518;2023-03-01T17:16:12;7.20;99.90
48860;DHT22;34679;51.436;-2.518;2023-03-01T17:18:38;7.20;99.90
48860;DHT22;34679;51.436;-2.518;2023-03-01T17:21:06;7.20;99.90
48860;DHT22;34679;51.436;-2.518;2023-03-01T17:23:33;7.20;99.90
48860;DHT22;34679;51.436;-2.518;2023-03-01T17:25:59;7.20;99.90
48860;DHT22;34679;51.436;-2.518;2023-03-01T17:28:27;7.20;99.90
48860;DHT22;34679;51.436;-2.518;2023-03-01T17:30:53;7.20;99.90
48860;DHT22;34679;51.436;-2.518;2023-03-01T17:33:20;7.10;99.90
48860;DHT22;34679;51.436;-2.518;2023-03-01T17:35:46;7.10;99.90
48860;DHT22;34679;51.436;-2.518;2023-03-01T17:38:15;7.10;99.90
48860;DHT22;34679;51.436;-2.518;2023-03-01T17:40:42;7.00;99.90
48860;DHT22;34679;51.436;-2.518;2023-03-01T17:43:11;7.00;99.90
48860;DHT22;34679;51.436;-2.518;2023-03-01T17:45:38;7.10;99.90
48860;DHT22;34679;51.436;-2.518;2023-03-01T17:48:05;7.10;99.90
48860;DHT22;34679;51.436;-2.518;2023-03-01T17:50:31;7.10;99.90
48860;DHT22;34679;51.436;-2.518;2023-03-01T17:52:56;7.10;99.90
48860;DHT22;34679;51.436;-2.518;2023-03-01T17:55:23;7.10;99.90
48860;DHT22;34679;51.436;-2.518;2023-03-01T17:57:48;7.10;99.90